createdAt,value
2019-03-08T00:00:35.351Z,6.50
2019-03-08T00:01:35.330Z,6.70
2019-03-08T00:02:35.310Z,6.20
2019-03-08T00:03:35.291Z,6.50
2019-03-08T00:04:35.263Z,6.40
2019-03-08T00:05:35.247Z,6.20
2019-03-08T00:06:35.221Z,6.70
2019-03-08T00:07:35.199Z,6.30
2019-03-08T00:08:35.181Z,6.90
2019-03-08T00:09:35.158Z,6.40
2019-03-08T00:10:35.138Z,6.60
2019-03-08T00:11:35.115Z,7.00
2019-03-08T00:12:35.092Z,6.90
2019-03-08T00:13:35.082Z,7.30
2019-03-08T00:14:35.062Z,6.50
2019-03-08T00:15:35.031Z,6.70
2019-03-08T00:16:35.015Z,6.60
2019-03-08T00:17:34.996Z,6.90
2019-03-08T00:18:34.965Z,6.40
2019-03-08T00:19:34.951Z,6.70
2019-03-08T00:20:34.927Z,6.60
2019-03-08T00:21:34.908Z,6.90
2019-03-08T00:22:34.887Z,6.80
2019-03-08T00:23:34.866Z,6.70
2019-03-08T00:24:34.846Z,7.00
2019-03-08T00:25:34.824Z,7.10
2019-03-08T00:26:34.808Z,6.60
2019-03-08T00:27:34.788Z,6.60
2019-03-08T00:28:34.758Z,6.60
2019-03-08T00:29:34.738Z,6.90
2019-03-08T00:30:34.722Z,6.80
2019-03-08T00:31:34.698Z,6.70
2019-03-08T00:32:34.673Z,6.50
2019-03-08T00:33:34.652Z,7.10
2019-03-08T00:34:34.633Z,6.90
2019-03-08T00:35:34.614Z,7.00
2019-03-08T00:36:34.591Z,6.80
2019-03-08T00:37:34.573Z,7.00
2019-03-08T00:38:34.551Z,7.30
2019-03-08T00:39:34.526Z,6.80
2019-03-08T00:40:34.506Z,7.40
2019-03-08T00:41:34.482Z,7.30
2019-03-08T00:42:34.464Z,7.30
2019-03-08T00:43:34.445Z,7.30
2019-03-08T00:44:34.427Z,7.00
2019-03-08T00:45:34.400Z,6.90
2019-03-08T00:46:34.376Z,7.60
2019-03-08T00:47:34.358Z,7.20
2019-03-08T00:48:34.350Z,7.10
2019-03-08T00:49:34.318Z,7.10
2019-03-08T00:50:34.286Z,6.80
2019-03-08T00:51:34.275Z,6.90
2019-03-08T00:52:34.257Z,6.90
2019-03-08T00:53:34.238Z,6.80
2019-03-08T00:54:34.211Z,7.10
2019-03-08T00:55:34.192Z,7.00
2019-03-08T00:56:34.171Z,7.50
2019-03-08T00:57:34.147Z,7.20
2019-03-08T00:58:34.121Z,7.40
2019-03-08T00:59:34.102Z,7.40
2019-03-08T01:00:34.083Z,7.30
2019-03-08T01:01:34.056Z,7.50
2019-03-08T01:02:35.808Z,7.40
2019-03-08T01:03:34.018Z,7.80
2019-03-08T01:04:33.994Z,7.50
2019-03-08T01:05:33.972Z,7.90
2019-03-08T01:06:33.954Z,7.70
2019-03-08T01:07:33.938Z,7.80
2019-03-08T01:08:34.069Z,8.10
2019-03-08T01:09:33.888Z,7.20
2019-03-08T01:10:33.868Z,6.90
2019-03-08T01:11:33.850Z,7.00
2019-03-08T01:12:33.826Z,7.30
2019-03-08T01:13:33.808Z,7.30
2019-03-08T01:14:33.786Z,7.30
2019-03-08T01:15:33.765Z,7.40
2019-03-08T01:16:33.741Z,7.20
2019-03-08T01:17:33.720Z,7.10
2019-03-08T01:18:33.702Z,7.00
2019-03-08T01:19:33.679Z,7.10
2019-03-08T01:20:33.655Z,7.00
2019-03-08T01:21:33.636Z,7.20
2019-03-08T01:22:33.616Z,7.10
2019-03-08T01:23:33.593Z,7.00
2019-03-08T01:24:33.570Z,6.60
2019-03-08T01:25:33.551Z,7.20
2019-03-08T01:26:33.525Z,7.50
2019-03-08T01:27:33.508Z,7.20
2019-03-08T01:28:33.484Z,7.20
2019-03-08T01:29:33.460Z,7.40
2019-03-08T01:30:33.440Z,7.20
2019-03-08T01:31:33.431Z,6.90
2019-03-08T01:32:33.402Z,6.70
2019-03-08T01:33:33.379Z,7.10
2019-03-08T01:34:33.359Z,7.30
2019-03-08T01:35:33.337Z,7.00
2019-03-08T01:36:33.317Z,7.30
2019-03-08T01:37:33.291Z,6.70
2019-03-08T01:38:33.284Z,7.30
2019-03-08T01:39:33.258Z,7.20
2019-03-08T01:40:33.228Z,6.60
2019-03-08T01:41:33.209Z,7.10
2019-03-08T01:42:33.184Z,7.40
2019-03-08T01:43:33.168Z,6.50
2019-03-08T01:44:33.919Z,7.10
2019-03-08T01:45:33.134Z,6.80
2019-03-08T01:46:33.099Z,6.80
2019-03-08T01:47:33.078Z,6.50
2019-03-08T01:48:33.063Z,6.60
2019-03-08T01:49:33.041Z,6.60
2019-03-08T01:50:33.021Z,7.00
2019-03-08T01:51:32.995Z,7.30
2019-03-08T01:52:32.975Z,7.50
2019-03-08T01:53:32.957Z,7.00
2019-03-08T01:54:32.932Z,7.00
2019-03-08T01:55:32.911Z,6.80
2019-03-08T01:56:32.892Z,7.00
2019-03-08T01:57:32.887Z,6.80
2019-03-08T01:58:32.867Z,7.50
2019-03-08T01:59:32.832Z,6.90
2019-03-08T02:00:32.803Z,6.20
2019-03-08T02:01:32.785Z,6.60
2019-03-08T02:02:32.762Z,7.00
2019-03-08T02:03:32.743Z,7.30
2019-03-08T02:04:32.725Z,6.90
2019-03-08T02:05:32.697Z,6.60
2019-03-08T02:06:32.679Z,6.80
2019-03-08T02:07:33.291Z,6.90
2019-03-08T02:08:32.639Z,7.10
2019-03-08T02:09:32.615Z,7.20
2019-03-08T02:10:32.591Z,6.80
2019-03-08T02:11:32.567Z,6.90
2019-03-08T02:12:32.545Z,6.80
2019-03-08T02:13:32.523Z,7.00
2019-03-08T02:14:32.503Z,6.90
2019-03-08T02:15:32.492Z,6.70
2019-03-08T02:16:32.465Z,7.30
2019-03-08T02:17:32.441Z,6.80
2019-03-08T02:18:32.422Z,6.80
2019-03-08T02:19:32.400Z,6.90
2019-03-08T02:20:32.379Z,6.80
2019-03-08T02:21:32.351Z,6.80
2019-03-08T02:22:32.332Z,7.10
2019-03-08T02:23:32.309Z,6.70
2019-03-08T02:24:32.295Z,6.90
2019-03-08T02:25:32.271Z,7.20
2019-03-08T02:26:32.251Z,7.20
2019-03-08T02:27:32.227Z,7.00
2019-03-08T02:28:32.209Z,7.10
2019-03-08T02:29:32.187Z,6.90
2019-03-08T02:30:32.164Z,6.70
2019-03-08T02:31:32.146Z,6.50
2019-03-08T02:32:32.120Z,6.60
2019-03-08T02:33:32.100Z,6.70
2019-03-08T02:34:32.075Z,6.40
2019-03-08T02:35:32.059Z,6.50
2019-03-08T02:36:32.040Z,6.60
2019-03-08T02:37:32.016Z,6.60
2019-03-08T02:38:31.999Z,6.60
2019-03-08T02:39:31.969Z,7.00
2019-03-08T02:40:31.949Z,7.10
2019-03-08T02:41:31.928Z,6.90
2019-03-08T02:42:31.905Z,7.10
2019-03-08T02:43:31.887Z,6.90
2019-03-08T02:44:31.863Z,6.70
2019-03-08T02:45:31.840Z,6.80
2019-03-08T02:46:31.819Z,6.80
2019-03-08T02:47:31.805Z,7.50
2019-03-08T02:48:31.780Z,7.00
2019-03-08T02:49:31.757Z,7.20
2019-03-08T02:50:31.735Z,6.90
2019-03-08T02:51:31.717Z,7.30
2019-03-08T02:52:31.710Z,7.60
2019-03-08T02:53:31.674Z,6.90
2019-03-08T02:54:31.649Z,7.30
2019-03-08T02:55:31.624Z,7.20
2019-03-08T02:56:31.608Z,7.60
2019-03-08T02:57:31.589Z,6.80
2019-03-08T02:58:31.574Z,6.80
2019-03-08T02:59:31.542Z,7.30
2019-03-08T03:00:31.520Z,7.00
2019-03-08T03:01:31.502Z,6.70
2019-03-08T03:02:31.476Z,7.00
2019-03-08T03:03:31.455Z,7.10
2019-03-08T03:04:31.437Z,7.30
2019-03-08T03:05:31.414Z,7.00
2019-03-08T03:06:31.392Z,7.10
2019-03-08T03:07:31.374Z,6.50
2019-03-08T03:08:31.351Z,6.30
2019-03-08T03:09:31.329Z,6.90
2019-03-08T03:10:31.308Z,6.70
2019-03-08T03:11:31.286Z,6.90
2019-03-08T03:12:31.262Z,6.60
2019-03-08T03:13:31.245Z,7.00
2019-03-08T03:14:31.218Z,6.40
2019-03-08T03:15:31.198Z,6.60
2019-03-08T03:16:31.182Z,6.30
2019-03-08T03:17:31.160Z,7.00
2019-03-08T03:18:31.135Z,6.80
2019-03-08T03:19:31.112Z,6.50
2019-03-08T03:20:31.101Z,6.70
2019-03-08T03:21:31.072Z,6.70
2019-03-08T03:22:31.054Z,6.90
2019-03-08T03:23:31.029Z,6.60
2019-03-08T03:24:31.012Z,6.60
2019-03-08T03:25:30.986Z,6.30
2019-03-08T03:26:30.962Z,6.10
2019-03-08T03:27:30.944Z,6.20
2019-03-08T03:28:30.922Z,6.30
2019-03-08T03:29:30.899Z,6.50
2019-03-08T03:30:30.883Z,6.10
2019-03-08T03:31:30.860Z,6.30
2019-03-08T03:32:30.837Z,6.20
2019-03-08T03:33:30.832Z,6.30
2019-03-08T03:34:30.797Z,6.30
2019-03-08T03:35:30.769Z,6.70
2019-03-08T03:36:30.754Z,6.20
2019-03-08T03:37:30.728Z,6.20
2019-03-08T03:38:30.710Z,6.60
2019-03-08T03:39:30.684Z,6.40
2019-03-08T03:40:30.669Z,6.80
2019-03-08T03:41:30.643Z,6.20
2019-03-08T03:42:30.631Z,6.50
2019-03-08T03:43:30.604Z,6.40
2019-03-08T03:44:30.578Z,6.70
2019-03-08T03:45:30.563Z,6.50
2019-03-08T03:46:30.536Z,6.90
2019-03-08T03:47:30.514Z,7.10
2019-03-08T03:48:30.497Z,7.00
2019-03-08T03:49:30.470Z,7.10
2019-03-08T03:50:30.450Z,6.90
2019-03-08T03:51:30.432Z,7.10
2019-03-08T03:52:30.411Z,7.10
2019-03-08T03:53:30.387Z,7.40
2019-03-08T03:54:30.366Z,6.70
2019-03-08T03:55:30.342Z,6.90
2019-03-08T03:56:30.323Z,7.10
2019-03-08T03:57:30.304Z,6.60
2019-03-08T03:58:30.283Z,7.20
2019-03-08T03:59:30.258Z,6.90
2019-03-08T04:00:30.240Z,7.00
2019-03-08T04:01:30.221Z,7.50
2019-03-08T04:02:30.204Z,6.40
2019-03-08T04:03:30.179Z,6.20
2019-03-08T04:04:30.153Z,6.30
2019-03-08T04:05:30.131Z,6.50
2019-03-08T04:06:30.111Z,6.10
2019-03-08T04:07:30.091Z,6.50
2019-03-08T04:08:30.068Z,6.40
2019-03-08T04:09:30.047Z,6.60
2019-03-08T04:10:30.024Z,6.70
2019-03-08T04:11:30.003Z,6.70
2019-03-08T04:12:29.981Z,6.80
2019-03-08T04:13:29.965Z,6.40
2019-03-08T04:14:29.942Z,6.80
2019-03-08T04:15:29.926Z,6.80
2019-03-08T04:16:29.896Z,6.00
2019-03-08T04:17:29.877Z,6.40
2019-03-08T04:18:29.856Z,6.50
2019-03-08T04:19:29.837Z,6.70
2019-03-08T04:20:29.817Z,6.60
2019-03-08T04:21:29.797Z,6.50
2019-03-08T04:22:29.773Z,6.80
2019-03-08T04:23:29.749Z,7.00
2019-03-08T04:24:29.727Z,6.70
2019-03-08T04:25:29.705Z,6.70
2019-03-08T04:26:29.685Z,6.50
2019-03-08T04:27:29.667Z,6.90
2019-03-08T04:28:29.645Z,6.70
2019-03-08T04:29:29.628Z,6.70
2019-03-08T04:30:29.602Z,6.90
2019-03-08T04:31:29.585Z,7.20
2019-03-08T04:32:29.559Z,6.80
2019-03-08T04:33:29.538Z,7.20
2019-03-08T04:34:29.514Z,6.70
2019-03-08T04:35:29.493Z,6.80
2019-03-08T04:36:30.338Z,7.00
2019-03-08T04:37:29.458Z,7.00
2019-03-08T04:38:29.430Z,6.70
2019-03-08T04:39:29.412Z,6.60
2019-03-08T04:40:29.391Z,6.80
2019-03-08T04:41:29.369Z,7.10
2019-03-08T04:42:29.345Z,7.10
2019-03-08T04:43:29.325Z,7.00
2019-03-08T04:44:29.303Z,7.00
2019-03-08T04:45:29.290Z,7.00
2019-03-08T04:46:29.261Z,6.80
2019-03-08T04:47:29.243Z,6.60
2019-03-08T04:48:29.220Z,6.90
2019-03-08T04:49:29.199Z,6.90
2019-03-08T04:50:29.173Z,6.70
2019-03-08T04:51:29.158Z,6.80
2019-03-08T04:52:29.134Z,7.00
2019-03-08T04:53:29.112Z,6.50
2019-03-08T04:54:29.094Z,6.60
2019-03-08T04:55:29.067Z,6.70
2019-03-08T04:56:29.047Z,6.70
2019-03-08T04:57:29.026Z,6.70
2019-03-08T04:58:29.009Z,7.10
2019-03-08T04:59:28.986Z,6.80
2019-03-08T05:00:28.970Z,6.80
2019-03-08T05:01:28.942Z,6.60
2019-03-08T05:02:28.923Z,6.10
2019-03-08T05:03:28.900Z,6.20
2019-03-08T05:04:28.876Z,6.40
2019-03-08T05:05:28.859Z,6.70
2019-03-08T05:06:28.838Z,6.60
2019-03-08T05:07:28.812Z,6.10
2019-03-08T05:08:28.795Z,6.00
2019-03-08T05:09:28.780Z,6.20
2019-03-08T05:10:28.752Z,5.90
2019-03-08T05:11:28.728Z,5.90
2019-03-08T05:12:28.710Z,5.90
2019-03-08T05:13:28.688Z,6.20
2019-03-08T05:14:28.669Z,5.90
2019-03-08T05:15:28.644Z,6.30
2019-03-08T05:16:28.624Z,6.10
2019-03-08T05:17:28.604Z,6.00
2019-03-08T05:18:28.582Z,6.70
2019-03-08T05:19:28.558Z,6.80
2019-03-08T05:20:28.540Z,6.40
2019-03-08T05:21:28.517Z,7.20
2019-03-08T05:22:28.498Z,6.40
2019-03-08T05:23:28.481Z,6.30
2019-03-08T05:24:28.460Z,6.30
2019-03-08T05:25:28.430Z,6.60
2019-03-08T05:26:28.418Z,6.20
2019-03-08T05:27:28.396Z,6.30
2019-03-08T05:28:28.371Z,6.40
2019-03-08T05:29:28.347Z,6.60
2019-03-08T05:30:28.328Z,6.10
2019-03-08T05:31:28.312Z,6.50
2019-03-08T05:32:28.288Z,6.30
2019-03-08T05:33:28.266Z,6.30
2019-03-08T05:34:28.245Z,6.00
2019-03-08T05:35:28.224Z,6.30
2019-03-08T05:36:28.203Z,6.00
2019-03-08T05:37:28.182Z,6.50
2019-03-08T05:38:28.158Z,5.70
2019-03-08T05:39:28.137Z,6.60
2019-03-08T05:40:28.117Z,5.90
2019-03-08T05:41:28.098Z,6.20
2019-03-08T05:42:28.082Z,6.40
2019-03-08T05:43:28.054Z,6.30
2019-03-08T05:44:28.030Z,6.00
2019-03-08T05:45:28.012Z,5.90
2019-03-08T05:46:28.031Z,6.10
2019-03-08T05:47:27.976Z,6.10
2019-03-08T05:48:27.959Z,6.30
2019-03-08T05:49:27.929Z,6.40
2019-03-08T05:50:27.904Z,6.30
2019-03-08T05:51:27.882Z,5.80
2019-03-08T05:52:27.870Z,5.90
2019-03-08T05:53:27.842Z,6.40
2019-03-08T05:54:27.822Z,6.00
2019-03-08T05:55:27.806Z,6.30
2019-03-08T05:56:27.782Z,6.80
2019-03-08T05:57:27.764Z,6.70
2019-03-08T05:58:27.738Z,6.10
2019-03-08T05:59:27.719Z,6.10
2019-03-08T06:00:32.121Z,6.10
2019-03-08T06:01:27.672Z,6.50
2019-03-08T06:02:27.654Z,5.90
2019-03-08T06:03:27.633Z,5.70
2019-03-08T06:04:27.620Z,5.80
2019-03-08T06:05:27.594Z,5.40
2019-03-08T06:06:27.576Z,5.80
2019-03-08T06:07:36.560Z,7.20
2019-03-08T06:08:36.534Z,8.50
2019-03-08T06:09:36.516Z,8.70
2019-03-08T06:10:36.497Z,8.60
2019-03-08T06:11:36.477Z,8.50
2019-03-08T06:12:36.453Z,9.20
2019-03-08T06:13:36.435Z,9.10
2019-03-08T06:14:36.415Z,8.70
2019-03-08T06:15:36.394Z,8.70
2019-03-08T06:16:36.371Z,8.70
2019-03-08T06:17:36.345Z,8.40
2019-03-08T06:18:36.330Z,8.90
2019-03-08T06:19:36.309Z,8.70
2019-03-08T06:20:36.287Z,8.80
2019-03-08T06:21:36.270Z,8.50
2019-03-08T06:22:36.259Z,8.90
2019-03-08T06:23:36.221Z,8.90
2019-03-08T06:24:36.202Z,8.80
2019-03-08T06:25:36.185Z,8.70
2019-03-08T06:26:36.160Z,9.50
2019-03-08T06:27:36.143Z,8.60
2019-03-08T06:28:36.115Z,9.50
2019-03-08T06:29:36.096Z,9.00
2019-03-08T06:30:36.075Z,8.90
2019-03-08T06:31:36.053Z,9.20
2019-03-08T06:32:36.035Z,9.60
2019-03-08T06:33:36.010Z,9.30
2019-03-08T06:34:35.995Z,8.70
2019-03-08T06:35:35.978Z,8.70
2019-03-08T06:36:35.950Z,8.30
2019-03-08T06:37:35.933Z,8.90
2019-03-08T06:38:35.913Z,9.10
2019-03-08T06:39:35.891Z,8.70
2019-03-08T06:40:35.868Z,8.60
2019-03-08T06:41:35.847Z,8.70
2019-03-08T06:42:35.826Z,8.90
2019-03-08T06:43:35.809Z,9.00
2019-03-08T06:44:35.800Z,9.00
2019-03-08T06:45:35.764Z,9.10
2019-03-08T06:46:35.742Z,9.20
2019-03-08T06:47:35.721Z,8.40
2019-03-08T06:48:35.703Z,9.10
2019-03-08T06:49:35.680Z,8.80
2019-03-08T06:50:35.663Z,8.60
2019-03-08T06:51:35.683Z,9.20
2019-03-08T06:52:35.619Z,9.00
2019-03-08T06:53:35.597Z,9.20
2019-03-08T06:54:35.579Z,8.80
2019-03-08T06:55:35.560Z,9.10
2019-03-08T06:56:35.539Z,9.30
2019-03-08T06:57:35.519Z,9.10
2019-03-08T06:58:35.493Z,9.50
2019-03-08T06:59:35.477Z,8.60
2019-03-08T07:00:35.467Z,8.10
2019-03-08T07:01:35.441Z,7.90
2019-03-08T07:02:35.411Z,7.80
2019-03-08T07:03:35.398Z,7.90
2019-03-08T07:04:35.423Z,7.30
2019-03-08T07:05:35.349Z,7.40
2019-03-08T07:06:35.333Z,8.30
2019-03-08T07:07:35.312Z,7.50
2019-03-08T07:08:35.291Z,7.10
2019-03-08T07:09:35.269Z,7.10
2019-03-08T07:10:35.246Z,8.30
2019-03-08T07:11:35.236Z,8.10
2019-03-08T07:12:35.209Z,7.70
2019-03-08T07:13:35.197Z,8.00
2019-03-08T07:14:35.168Z,8.10
2019-03-08T07:15:35.152Z,8.70
2019-03-08T07:16:35.121Z,8.10
2019-03-08T07:17:35.101Z,8.40
2019-03-08T07:18:35.077Z,8.00
2019-03-08T07:19:40.821Z,8.10
2019-03-08T07:20:35.040Z,8.20
2019-03-08T07:21:35.020Z,8.20
2019-03-08T07:22:34.999Z,8.60
2019-03-08T07:23:34.978Z,8.40
2019-03-08T07:24:34.959Z,8.80
2019-03-08T07:25:34.936Z,8.30
2019-03-08T07:26:34.917Z,8.90
2019-03-08T07:27:34.899Z,9.10
2019-03-08T07:28:34.874Z,8.40
2019-03-08T07:29:34.854Z,8.60
2019-03-08T07:30:34.834Z,8.70
2019-03-08T07:31:34.812Z,8.60
2019-03-08T07:32:34.794Z,8.80
2019-03-08T07:33:34.775Z,8.50
2019-03-08T07:34:34.755Z,9.00
2019-03-08T07:35:34.727Z,9.10
2019-03-08T07:36:34.711Z,8.50
2019-03-08T07:37:34.690Z,8.30
2019-03-08T07:38:34.665Z,8.20
2019-03-08T07:39:34.655Z,8.10
2019-03-08T07:40:34.627Z,8.30
2019-03-08T07:41:34.608Z,8.40
2019-03-08T07:42:34.591Z,7.90
2019-03-08T07:43:34.563Z,7.80
2019-03-08T07:44:34.551Z,8.10
2019-03-08T07:45:34.522Z,7.90
2019-03-08T07:46:34.502Z,8.70
2019-03-08T07:47:34.482Z,8.10
2019-03-08T07:48:34.463Z,8.10
2019-03-08T07:49:34.446Z,8.20
2019-03-08T07:50:34.420Z,8.00
2019-03-08T07:51:34.405Z,8.60
2019-03-08T07:52:34.384Z,8.50
2019-03-08T07:53:34.362Z,8.00
2019-03-08T07:54:34.339Z,9.10
2019-03-08T07:55:34.321Z,8.50
2019-03-08T07:56:34.297Z,8.80
2019-03-08T07:57:34.277Z,8.50
2019-03-08T07:58:34.257Z,8.00
2019-03-08T07:59:34.241Z,8.40
2019-03-08T08:00:34.216Z,8.30
2019-03-08T08:01:34.191Z,8.60
2019-03-08T08:02:34.188Z,8.80
2019-03-08T08:03:34.151Z,8.40
2019-03-08T08:04:34.133Z,8.10
2019-03-08T08:05:34.109Z,8.10
2019-03-08T08:06:34.091Z,8.70
2019-03-08T08:07:34.075Z,8.40
2019-03-08T08:08:34.054Z,8.50
2019-03-08T08:09:34.030Z,8.50
2019-03-08T08:10:34.010Z,8.30
2019-03-08T08:11:33.994Z,8.20
2019-03-08T08:12:33.969Z,8.10
2019-03-08T08:13:33.950Z,8.30
2019-03-08T08:14:39.499Z,8.50
2019-03-08T08:15:33.919Z,8.60
2019-03-08T08:16:33.890Z,8.10
2019-03-08T08:17:33.867Z,8.00
2019-03-08T08:18:33.846Z,8.70
2019-03-08T08:19:33.825Z,8.50
2019-03-08T08:20:33.808Z,8.40
2019-03-08T08:21:33.785Z,8.60
2019-03-08T08:22:33.766Z,8.30
2019-03-08T08:23:34.496Z,8.70
2019-03-08T08:24:33.727Z,8.60
2019-03-08T08:25:36.729Z,8.90
2019-03-08T08:26:33.684Z,8.40
2019-03-08T08:27:33.664Z,9.50
2019-03-08T08:28:33.659Z,8.80
2019-03-08T08:29:35.184Z,8.80
2019-03-08T08:30:33.603Z,8.60
2019-03-08T08:31:33.584Z,8.80
2019-03-08T08:32:33.568Z,8.80
2019-03-08T08:33:33.542Z,9.10
2019-03-08T08:34:33.534Z,9.10
2019-03-08T08:35:33.509Z,9.20
2019-03-08T08:36:33.478Z,8.80
2019-03-08T08:37:33.460Z,9.60
2019-03-08T08:38:33.444Z,12.20
2019-03-08T08:39:33.426Z,8.70
2019-03-08T08:40:33.398Z,9.10
2019-03-08T08:41:33.376Z,9.20
2019-03-08T08:42:33.358Z,9.00
2019-03-08T08:43:33.335Z,8.90
2019-03-08T08:44:33.313Z,8.90
2019-03-08T08:45:33.300Z,9.10
2019-03-08T08:46:33.275Z,9.20
2019-03-08T08:47:33.258Z,8.80
2019-03-08T08:48:33.237Z,8.70
2019-03-08T08:49:33.222Z,9.00
2019-03-08T08:50:33.195Z,9.60
2019-03-08T08:51:33.180Z,9.50
2019-03-08T08:52:33.156Z,8.80
2019-03-08T08:53:33.135Z,8.70
2019-03-08T08:54:33.119Z,9.00
2019-03-08T08:55:33.103Z,8.70
2019-03-08T08:56:33.085Z,8.90
2019-03-08T08:57:33.058Z,9.30
2019-03-08T08:58:33.041Z,9.30
2019-03-08T08:59:33.020Z,8.90
2019-03-08T09:00:32.995Z,9.30
2019-03-08T09:01:32.981Z,8.80
2019-03-08T09:02:32.962Z,8.50
2019-03-08T09:03:32.941Z,8.30
2019-03-08T09:04:32.920Z,8.60
2019-03-08T09:05:32.905Z,8.60
2019-03-08T09:06:32.884Z,8.60
2019-03-08T09:07:32.863Z,8.50
2019-03-08T09:08:32.852Z,8.40
2019-03-08T09:09:32.821Z,9.00
2019-03-08T09:10:32.802Z,8.20
2019-03-08T09:11:32.783Z,8.80
2019-03-08T09:12:32.757Z,8.80
2019-03-08T09:13:32.744Z,8.10
2019-03-08T09:14:32.718Z,8.80
2019-03-08T09:15:32.704Z,8.90
2019-03-08T09:16:32.677Z,9.00
2019-03-08T09:17:32.657Z,9.20
2019-03-08T09:18:32.638Z,8.90
2019-03-08T09:19:32.623Z,9.40
2019-03-08T09:20:32.605Z,9.20
2019-03-08T09:21:32.581Z,8.90
2019-03-08T09:22:32.569Z,9.10
2019-03-08T09:23:32.540Z,9.20
2019-03-08T09:24:32.523Z,9.20
2019-03-08T09:25:32.504Z,8.80
2019-03-08T09:26:33.136Z,9.40
2019-03-08T09:27:32.462Z,9.70
2019-03-08T09:28:32.442Z,9.00
2019-03-08T09:29:40.810Z,9.90
2019-03-08T09:30:32.399Z,9.40
2019-03-08T09:31:32.396Z,9.60
2019-03-08T09:32:32.364Z,9.90
2019-03-08T09:33:32.356Z,9.90
2019-03-08T09:34:32.343Z,10.10
2019-03-08T09:35:32.306Z,10.20
2019-03-08T09:36:32.287Z,10.40
2019-03-08T09:37:32.263Z,10.20
2019-03-08T09:38:32.246Z,10.40
2019-03-08T09:39:32.222Z,10.40
2019-03-08T09:40:32.205Z,10.10
2019-03-08T09:41:32.187Z,10.10
2019-03-08T09:42:32.166Z,10.20
2019-03-08T09:43:32.155Z,10.40
2019-03-08T09:44:32.129Z,9.80
2019-03-08T09:45:32.103Z,10.10
2019-03-08T09:46:32.084Z,10.00
2019-03-08T09:47:32.062Z,9.90
2019-03-08T09:48:32.043Z,10.10
2019-03-08T09:49:32.029Z,9.60
2019-03-08T09:50:32.006Z,10.10
2019-03-08T09:51:31.992Z,10.50
2019-03-08T09:52:32.598Z,11.30
2019-03-08T09:53:31.943Z,11.40
2019-03-08T09:54:31.928Z,12.20
2019-03-08T09:55:31.904Z,12.50
2019-03-08T09:56:31.885Z,12.90
2019-03-08T09:57:31.868Z,12.80
2019-03-08T09:58:31.848Z,12.10
2019-03-08T09:59:31.825Z,12.30
2019-03-08T10:00:31.805Z,11.50
2019-03-08T10:01:31.788Z,11.60
2019-03-08T10:02:31.768Z,11.90
2019-03-08T10:03:31.740Z,11.20
2019-03-08T10:04:31.721Z,11.10
2019-03-08T10:05:31.700Z,11.60
2019-03-08T10:06:31.680Z,11.20
2019-03-08T10:07:31.665Z,10.70
2019-03-08T10:08:31.642Z,11.40
2019-03-08T10:09:31.624Z,11.70
2019-03-08T10:10:31.598Z,11.50
2019-03-08T10:11:31.582Z,11.60
2019-03-08T10:12:31.561Z,12.90
2019-03-08T10:13:31.542Z,12.90
2019-03-08T10:14:31.517Z,13.90
2019-03-08T10:15:31.501Z,13.70
2019-03-08T10:16:31.479Z,13.20
2019-03-08T10:17:31.454Z,13.40
2019-03-08T10:18:31.438Z,13.40
2019-03-08T10:19:31.423Z,12.80
2019-03-08T10:20:31.398Z,13.20
2019-03-08T10:21:31.375Z,12.60
2019-03-08T10:22:31.357Z,12.60
2019-03-08T10:23:31.331Z,12.40
2019-03-08T10:24:31.314Z,12.70
2019-03-08T10:25:31.290Z,11.80
2019-03-08T10:26:31.271Z,12.20
2019-03-08T10:27:37.730Z,11.80
2019-03-08T10:28:31.224Z,12.20
2019-03-08T10:29:31.213Z,11.20
2019-03-08T10:30:31.976Z,12.10
2019-03-08T10:31:31.166Z,12.20
2019-03-08T10:32:37.279Z,12.00
2019-03-08T10:33:31.123Z,11.60
2019-03-08T10:34:31.106Z,12.00
2019-03-08T10:35:31.081Z,11.30
2019-03-08T10:36:31.061Z,11.60
2019-03-08T10:37:31.038Z,11.30
2019-03-08T10:38:31.020Z,11.30
2019-03-08T10:39:31.000Z,11.70
2019-03-08T10:40:30.976Z,11.50
2019-03-08T10:41:30.956Z,11.70
2019-03-08T10:42:30.950Z,12.30
2019-03-08T10:43:30.911Z,11.80
2019-03-08T10:44:30.902Z,11.00
2019-03-08T10:45:30.870Z,11.40
2019-03-08T10:46:30.846Z,10.90
2019-03-08T10:47:31.208Z,11.00
2019-03-08T10:48:30.812Z,13.70
2019-03-08T10:49:30.794Z,11.70
2019-03-08T10:50:30.772Z,11.20
2019-03-08T10:51:30.751Z,11.50
2019-03-08T10:52:30.729Z,10.90
2019-03-08T10:53:30.702Z,11.10
2019-03-08T10:54:30.688Z,10.40
2019-03-08T10:55:30.662Z,10.40
2019-03-08T10:56:30.644Z,10.90
2019-03-08T10:57:30.624Z,10.90
2019-03-08T10:58:30.612Z,11.00
2019-03-08T10:59:31.401Z,11.00
2019-03-08T11:00:30.567Z,10.90
2019-03-08T11:01:30.542Z,10.70
2019-03-08T11:02:30.520Z,10.60
2019-03-08T11:03:30.501Z,10.30
2019-03-08T11:04:30.480Z,10.60
2019-03-08T11:05:30.458Z,9.90
2019-03-08T11:06:30.444Z,10.60
2019-03-08T11:07:30.419Z,10.00
2019-03-08T11:08:30.411Z,10.30
2019-03-08T11:09:30.380Z,10.10
2019-03-08T11:10:30.382Z,10.20
2019-03-08T11:11:30.343Z,9.80
2019-03-08T11:12:30.327Z,9.90
2019-03-08T11:13:30.301Z,9.90
2019-03-08T11:14:30.285Z,10.40
2019-03-08T11:15:30.275Z,9.70
2019-03-08T11:16:30.270Z,10.10
2019-03-08T11:17:30.223Z,9.90
2019-03-08T11:18:30.204Z,10.00
2019-03-08T11:19:30.193Z,10.30
2019-03-08T11:20:30.164Z,10.80
2019-03-08T11:21:31.147Z,11.80
2019-03-08T11:22:30.130Z,13.60
2019-03-08T11:23:30.104Z,15.60
2019-03-08T11:24:30.083Z,16.80
2019-03-08T11:25:34.948Z,15.40
2019-03-08T11:26:30.043Z,16.60
2019-03-08T11:27:30.022Z,16.10
2019-03-08T11:28:30.007Z,15.60
2019-03-08T11:29:29.987Z,14.00
2019-03-08T11:30:29.965Z,14.80
2019-03-08T11:31:29.948Z,15.20
2019-03-08T11:32:29.931Z,15.50
2019-03-08T11:33:29.903Z,18.60
2019-03-08T11:34:29.883Z,20.10
2019-03-08T11:35:29.876Z,20.40
2019-03-08T11:36:29.839Z,20.90
2019-03-08T11:37:29.823Z,21.90
2019-03-08T11:38:29.797Z,20.80
2019-03-08T11:39:29.779Z,20.50
2019-03-08T11:40:29.765Z,20.70
2019-03-08T11:41:29.744Z,22.00
2019-03-08T11:42:30.232Z,21.30
2019-03-08T11:43:29.697Z,21.40
2019-03-08T11:44:29.676Z,21.50
2019-03-08T11:45:29.658Z,21.70
2019-03-08T11:46:29.630Z,21.30
2019-03-08T11:47:29.615Z,21.10
2019-03-08T11:48:29.589Z,21.40
2019-03-08T11:49:29.575Z,20.90
2019-03-08T11:50:29.551Z,21.20
2019-03-08T11:51:29.532Z,20.30
2019-03-08T11:52:29.507Z,19.80
2019-03-08T11:53:29.490Z,20.20
2019-03-08T11:54:29.715Z,19.80
2019-03-08T11:55:29.446Z,19.40
2019-03-08T11:56:29.439Z,20.30
2019-03-08T11:57:29.409Z,19.60
2019-03-08T11:58:29.389Z,19.70
2019-03-08T11:59:29.368Z,20.00
2019-03-08T12:00:29.341Z,19.80
2019-03-08T12:01:29.324Z,20.20
2019-03-08T12:02:37.620Z,20.60
2019-03-08T12:03:29.287Z,20.20
2019-03-08T12:04:29.256Z,19.70
2019-03-08T12:05:29.238Z,20.10
2019-03-08T12:06:29.215Z,20.20
2019-03-08T12:07:29.199Z,19.60
2019-03-08T12:08:29.177Z,20.00
2019-03-08T12:09:29.161Z,19.70
2019-03-08T12:10:29.132Z,19.30
2019-03-08T12:11:29.111Z,18.80
2019-03-08T12:12:29.093Z,18.00
2019-03-08T12:13:29.073Z,18.00
2019-03-08T12:14:29.056Z,17.30
2019-03-08T12:15:29.029Z,17.70
2019-03-08T12:16:29.009Z,17.80
2019-03-08T12:17:28.993Z,16.50
2019-03-08T12:18:28.966Z,15.20
2019-03-08T12:19:28.952Z,14.30
2019-03-08T12:20:28.932Z,14.30
2019-03-08T12:21:28.918Z,14.50
2019-03-08T12:22:28.892Z,13.10
2019-03-08T12:23:28.876Z,13.50
2019-03-08T12:24:28.851Z,13.50
2019-03-08T12:25:28.841Z,13.90
2019-03-08T12:26:28.823Z,14.40
2019-03-08T12:27:28.793Z,12.70
2019-03-08T12:28:28.775Z,12.90
2019-03-08T12:29:28.759Z,12.90
2019-03-08T12:30:28.739Z,12.20
2019-03-08T12:31:28.719Z,12.70
2019-03-08T12:32:28.702Z,11.50
2019-03-08T12:33:28.682Z,11.50
2019-03-08T12:34:28.668Z,11.20
2019-03-08T12:35:28.642Z,11.00
2019-03-08T12:36:28.630Z,10.80
2019-03-08T12:37:28.617Z,10.90
2019-03-08T12:38:28.594Z,10.50
2019-03-08T12:39:28.570Z,11.50
2019-03-08T12:40:28.558Z,14.70
2019-03-08T12:41:28.542Z,15.30
2019-03-08T12:42:28.525Z,12.70
2019-03-08T12:43:28.500Z,12.20
2019-03-08T12:44:28.484Z,11.40
2019-03-08T12:45:28.461Z,11.30
2019-03-08T12:46:28.453Z,10.50
2019-03-08T12:47:28.474Z,10.40
2019-03-08T12:48:28.411Z,10.50
2019-03-08T12:49:28.389Z,10.10
2019-03-08T12:50:28.374Z,10.20
2019-03-08T12:51:28.355Z,10.30
2019-03-08T12:52:28.336Z,10.30
2019-03-08T12:53:28.319Z,10.30
2019-03-08T12:54:28.300Z,10.80
2019-03-08T12:55:28.281Z,10.60
2019-03-08T12:56:28.266Z,10.40
2019-03-08T12:57:28.248Z,10.50
2019-03-08T12:58:28.228Z,10.20
2019-03-08T12:59:28.208Z,11.10
2019-03-08T13:00:28.193Z,10.20
2019-03-08T13:01:28.182Z,10.90
2019-03-08T13:02:28.156Z,10.70
2019-03-08T13:03:28.141Z,10.50
2019-03-08T13:04:28.120Z,10.20
2019-03-08T13:05:28.108Z,10.40
2019-03-08T13:06:28.090Z,11.50
2019-03-08T13:07:28.741Z,10.90
2019-03-08T13:08:28.047Z,11.90
2019-03-08T13:09:28.030Z,12.20
2019-03-08T13:10:28.008Z,11.30
2019-03-08T13:11:33.123Z,12.10